Time;durP1;ratioP1;P1;durP2;ratioP2;P2;SDS_P1;SDS_P2;PMS_P1;PMS_P2;Temp;Humidity;BMP_temperature;BMP_pressure;BME280_temperature;BME280_humidity;BME280_pressure;Samples;Min_cycle;Max_cycle;Signal;HPM_P1;HPM_P2
2022/06/12 00:04:30;;;;;;;;;;;;;;;14.59;53.875;102279.1;;;;-81
2022/06/12 00:09:29;;;;;;;;;;;;;;;14.57;53.99512;102275.6;;;;-82
2022/06/12 00:14:29;;;;;;;;;;;;;;;14.56;54.08398;102268.4;;;;-83
2022/06/12 00:18:54;;;;;;;8.5;1.4;;;;;;;;;;;;;-83
2022/06/12 00:19:30;;;;;;;;;;;;;;;14.54;54.02539;102266;;;;-83
2022/06/12 00:24:30;;;;;;;;;;;;;;;14.5;54.03125;102264.3;;;;-82
2022/06/12 00:29:30;;;;;;;;;;;;;;;14.48;54.10938;102263.6;;;;-83
2022/06/12 00:34:36;;;;;;;;;;;;;;;14.45;54.30859;102255.5;;;;-82
2022/06/12 00:39:31;;;;;;;;;;;;;;;14.42;54.14648;102252.9;;;;-81
2022/06/12 00:44:31;;;;;;;;;;;;;;;14.42;54.01172;102254.4;;;;-80
2022/06/12 00:48:56;;;;;;;4.5;1.3;;;;;;;;;;;;;-83
2022/06/12 00:49:30;;;;;;;;;;;;;;;14.38;54.15332;102251.7;;;;-83
2022/06/12 00:54:31;;;;;;;;;;;;;;;14.35;54.02441;102251.8;;;;-81
2022/06/12 00:59:35;;;;;;;;;;;;;;;14.31;53.96289;102256.1;;;;-82
2022/06/12 01:09:38;;;;;;;;;;;;;;;14.23;54.17871;102254.8;;;;-82
2022/06/12 01:14:31;;;;;;;;;;;;;;;14.21;54.31055;102254.2;;;;-81
2022/06/12 01:18:59;;;;;;;6.4;1.5;;;;;;;;;;;;;-84
2022/06/12 01:19:31;;;;;;;;;;;;;;;14.17;54.40723;102245.3;;;;-82
2022/06/12 01:24:38;;;;;;;;;;;;;;;14.15;54.51758;102252.1;;;;-81
2022/06/12 01:29:32;;;;;;;;;;;;;;;14.09;54.9043;102254.3;;;;-81
2022/06/12 01:34:35;;;;;;;;;;;;;;;14.05;55.14551;102252.8;;;;-83
2022/06/12 01:39:36;;;;;;;;;;;;;;;14.04;55.15723;102245.5;;;;-81
2022/06/12 01:44:36;;;;;;;;;;;;;;;14.01;55.02832;102247;;;;-84
2022/06/12 01:49:05;;;;;;;8.9;1.9;;;;;;;;;;;;;-82
2022/06/12 01:49:33;;;;;;;;;;;;;;;14.01;54.90527;102248.9;;;;-82
2022/06/12 01:54:33;;;;;;;;;;;;;;;14;55.28516;102247;;;;-82
2022/06/12 01:59:33;;;;;;;;;;;;;;;13.96;55.30371;102251.3;;;;-83
2022/06/12 02:04:33;;;;;;;;;;;;;;;13.97;56.03418;102256.5;;;;-81
2022/06/12 02:09:31;;;;;;;;;;;;;;;13.93;55.67969;102253.3;;;;-81
2022/06/12 02:14:34;;;;;;;;;;;;;;;13.92;55.71387;102248.9;;;;-81
2022/06/12 02:19:07;;;;;;;9.3;1.8;;;;;;;;;;;;;-83
2022/06/12 02:19:33;;;;;;;;;;;;;;;13.88;56.67383;102250.4;;;;-83
2022/06/12 02:24:31;;;;;;;;;;;;;;;13.86;55.78418;102246.7;;;;-82
2022/06/12 02:29:33;;;;;;;;;;;;;;;13.82;55.83594;102234.5;;;;-81
2022/06/12 02:34:35;;;;;;;;;;;;;;;13.84;55.97266;102233;;;;-83
2022/06/12 02:39:36;;;;;;;;;;;;;;;13.84;56.0625;102240.3;;;;-82
2022/06/12 02:44:32;;;;;;;;;;;;;;;13.84;56.00684;102238;;;;-80
2022/06/12 02:49:06;;;;;;;6.1;1.7;;;;;;;;;;;;;-81
2022/06/12 02:49:30;;;;;;;;;;;;;;;13.79;56.23633;102238.1;;;;-81
2022/06/12 02:54:33;;;;;;;;;;;;;;;13.78;57.35742;102236.6;;;;-84
2022/06/12 02:59:34;;;;;;;;;;;;;;;13.77;56.72656;102236;;;;-81
2022/06/12 03:04:32;;;;;;;;;;;;;;;13.73;57.71094;102236.5;;;;-82
2022/06/12 03:09:31;;;;;;;;;;;;;;;13.72;56.29492;102228.8;;;;-82
2022/06/12 03:14:29;;;;;;;;;;;;;;;13.7;56.4043;102227.8;;;;-82
2022/06/12 03:19:09;;;;;;;7.4;1.8;;;;;;;;;;;;;-82
2022/06/12 03:19:30;;;;;;;;;;;;;;;13.68;55.89648;102228.8;;;;-80
2022/06/12 03:24:38;;;;;;;;;;;;;;;13.67;55.94043;102234.5;;;;-85
2022/06/12 03:29:36;;;;;;;;;;;;;;;13.61;55.78711;102237.8;;;;-81
2022/06/12 03:34:32;;;;;;;;;;;;;;;13.61;55.97754;102231;;;;-82
2022/06/12 03:39:34;;;;;;;;;;;;;;;13.62;56.09082;102234.6;;;;-82
2022/06/12 03:44:37;;;;;;;;;;;;;;;13.59;56.37891;102243.6;;;;-82
2022/06/12 03:49:12;;;;;;;8.2;2;;;;;;;;;;;;;-83
2022/06/12 03:49:33;;;;;;;;;;;;;;;13.58;56.48926;102250.7;;;;-82
2022/06/12 03:54:30;;;;;;;;;;;;;;;13.59;56.37891;102250.9;;;;-82
2022/06/12 03:59:31;;;;;;;;;;;;;;;13.58;56.44531;102249.7;;;;-81
2022/06/12 04:04:38;;;;;;;;;;;;;;;13.58;56.25488;102246.6;;;;-82
2022/06/12 04:09:31;;;;;;;;;;;;;;;13.61;56.875;102244.8;;;;-83
2022/06/12 04:14:30;;;;;;;;;;;;;;;13.64;57.01367;102248;;;;-81
2022/06/12 04:19:11;;;;;;;8.9;2.1;;;;;;;;;;;;;-82
2022/06/12 04:19:30;;;;;;;;;;;;;;;13.7;57.19043;102248.1;;;;-80
2022/06/12 04:24:32;;;;;;;;;;;;;;;13.79;57.85156;102252.1;;;;-82
2022/06/12 04:29:31;;;;;;;;;;;;;;;13.85;57.6582;102251;;;;-83
2022/06/12 04:34:30;;;;;;;;;;;;;;;13.93;57.73633;102249.5;;;;-82
2022/06/12 04:39:31;;;;;;;;;;;;;;;14;57.62109;102251.1;;;;-81
2022/06/12 04:44:29;;;;;;;;;;;;;;;14.09;57.55566;102252.1;;;;-82
2022/06/12 04:49:14;;;;;;;7.2;2;;;;;;;;;;;;;-83
2022/06/12 04:49:31;;;;;;;;;;;;;;;14.21;57.58203;102265.9;;;;-83
2022/06/12 04:54:29;;;;;;;;;;;;;;;14.33;57.32813;102259.7;;;;-82
2022/06/12 04:59:32;;;;;;;;;;;;;;;14.43;57.64355;102259.3;;;;-83
2022/06/12 05:04:29;;;;;;;;;;;;;;;14.52;57.67871;102259.2;;;;-81
2022/06/12 05:09:32;;;;;;;;;;;;;;;14.62;57.93945;102253.6;;;;-82
2022/06/12 05:14:36;;;;;;;;;;;;;;;14.73;57.33594;102260;;;;-83
2022/06/12 05:19:19;;;;;;;9.5;2.1;;;;;;;;;;;;;-83
2022/06/12 05:19:31;;;;;;;;;;;;;;;14.82;57.37988;102247.3;;;;-79
2022/06/12 05:24:32;;;;;;;;;;;;;;;15.18;56.97656;102251.9;;;;-82
2022/06/12 05:29:32;;;;;;;;;;;;;;;15.83;56.08008;102263.6;;;;-82
2022/06/12 05:34:31;;;;;;;;;;;;;;;16.49;54.52539;102265.9;;;;-81
2022/06/12 05:39:30;;;;;;;;;;;;;;;16.89;53.69141;102268;;;;-82
2022/06/12 05:44:29;;;;;;;;;;;;;;;17.25;53.40918;102262.9;;;;-81
2022/06/12 05:49:16;;;;;;;8.4;1.7;;;;;;;;;;;;;-81
2022/06/12 05:49:29;;;;;;;;;;;;;;;17.8;52.68066;102266;;;;-82
2022/06/12 05:54:31;;;;;;;;;;;;;;;18.35;52.03027;102272.3;;;;-80
2022/06/12 05:59:31;;;;;;;;;;;;;;;18.6;51.54785;102274.5;;;;-83
2022/06/12 06:04:29;;;;;;;;;;;;;;;18.6;51.72949;102277.6;;;;-82
2022/06/12 06:09:29;;;;;;;;;;;;;;;18.9;51.22949;102288.1;;;;-81
2022/06/12 06:14:29;;;;;;;;;;;;;;;19.26;50.89453;102276.4;;;;-80
2022/06/12 06:19:19;;;;;;;7.6;1.8;;;;;;;;;;;;;-81
2022/06/12 06:19:29;;;;;;;;;;;;;;;19.78;50.10059;102280;;;;-81
2022/06/12 06:24:29;;;;;;;;;;;;;;;20.33;49.17871;102280.3;;;;-82
2022/06/12 06:29:29;;;;;;;;;;;;;;;20.89;48.36133;102279.1;;;;-83
2022/06/12 06:34:29;;;;;;;;;;;;;;;21.38;47.46484;102292;;;;-83
2022/06/12 06:39:29;;;;;;;;;;;;;;;21.83;46.8125;102294.9;;;;-81
2022/06/12 06:49:21;;;;;;;5.5;1.5;;;;;;;;;;;;;-81
2022/06/12 06:49:30;;;;;;;;;;;;;;;22.54;45.57715;102313.3;;;;-81
2022/06/12 06:54:29;;;;;;;;;;;;;;;22.85;45.30957;102313.4;;;;-82
2022/06/12 06:59:30;;;;;;;;;;;;;;;23.15;44.87988;102318.3;;;;-82
2022/06/12 07:04:29;;;;;;;;;;;;;;;23.47;44.18555;102314.4;;;;-82
2022/06/12 07:09:28;;;;;;;;;;;;;;;23.79;43.5957;102321.9;;;;-83
2022/06/12 07:14:29;;;;;;;;;;;;;;;24.08;43.2207;102321.4;;;;-81
2022/06/12 07:19:24;;;;;;;5.4;1.8;;;;;;;;;;;;;-83
2022/06/12 07:19:35;;;;;;;;;;;;;;;24.33;42.81738;102308;;;;-80
2022/06/12 07:24:29;;;;;;;;;;;;;;;24.68;42.33105;102314.9;;;;-81
2022/06/12 07:29:29;;;;;;;;;;;;;;;24.99;41.78125;102313.9;;;;-83
2022/06/12 07:34:29;;;;;;;;;;;;;;;25.3;41.40527;102313.2;;;;-83
2022/06/12 07:39:30;;;;;;;;;;;;;;;25.57;40.90918;102315.7;;;;-83
2022/06/12 07:44:30;;;;;;;;;;;;;;;25.85;40.47168;102315.7;;;;-82
2022/06/12 07:49:30;;;;;;;5.5;1.5;;;;;;;;;;;;;-82
2022/06/12 07:49:47;;;;;;;;;;;;;;;25.96;40.24902;102298.6;;;;-82
2022/06/12 07:54:30;;;;;;;;;;;;;;;26.1;39.97168;102309.1;;;;-77
2022/06/12 07:59:28;;;;;;;;;;;;;;;26.28;39.80176;102310.7;;;;-76
2022/06/12 08:04:29;;;;;;;;;;;;;;;26.46;39.23633;102316.9;;;;-79
2022/06/12 08:09:31;;;;;;;;;;;;;;;26.57;39.16504;102315.6;;;;-78
2022/06/12 08:14:29;;;;;;;;;;;;;;;26.8;38.96484;102315.8;;;;-79
2022/06/12 08:24:28;;;;;;;;;;;;;;;27.04;38.36914;102318.9;;;;-78
2022/06/12 08:29:32;;;;;;;;;;;;;;;27.19;38.12598;102323.2;;;;-80
2022/06/12 08:34:31;;;;;;;;;;;;;;;27.39;37.92285;102324;;;;-78
2022/06/12 08:39:30;;;;;;;;;;;;;;;27.57;37.44824;102326.5;;;;-77
2022/06/12 08:44:31;;;;;;;;;;;;;;;27.78;37.40625;102325.4;;;;-79
2022/06/12 08:49:31;;;;;;;;;;;;;;;28;37.0625;102332.4;;;;-76
2022/06/12 08:49:44;;;;;;;6;1.6;;;;;;;;;;;;;-76
2022/06/12 08:54:30;;;;;;;;;;;;;;;28.19;36.81152;102325.8;;;;-77
2022/06/12 08:59:31;;;;;;;;;;;;;;;28.3;36.65625;102331.2;;;;-77
2022/06/12 09:04:28;;;;;;;;;;;;;;;28.37;36.70898;102319.5;;;;-76
2022/06/12 09:09:32;;;;;;;;;;;;;;;28.45;36.40039;102317.4;;;;-77
2022/06/12 09:14:36;;;;;;;;;;;;;;;28.36;36.11328;102317.2;;;;-74
2022/06/12 09:19:35;;;;;;;;;;;;;;;28.17;36.69336;102317.3;;;;-78
2022/06/12 09:19:49;;;;;;;10;1.8;;;;;;;;;;;;;-78
2022/06/12 09:24:32;;;;;;;;;;;;;;;28.06;36.4043;102310.9;;;;-76
2022/06/12 09:29:35;;;;;;;;;;;;;;;28.04;36.78711;102319;;;;-77
2022/06/12 09:34:37;;;;;;;;;;;;;;;28.19;36.69336;102317.7;;;;-79
2022/06/12 09:39:35;;;;;;;;;;;;;;;28.41;36.58398;102318.9;;;;-79
2022/06/12 09:44:35;;;;;;;;;;;;;;;28.69;36.18555;102322;;;;-78
2022/06/12 09:49:42;;;;;;;;;;;;;;;28.89;35.76855;102314.8;;;;-78
2022/06/12 09:49:57;;;;;;;6.2;1.8;;;;;;;;;;;;;-78
2022/06/12 09:54:40;;;;;;;;;;;;;;;29.08;35.72559;102314.9;;;;-77
2022/06/12 09:59:31;;;;;;;;;;;;;;;29.3;35.81348;102318.4;;;;-78
2022/06/12 10:04:31;;;;;;;;;;;;;;;29.48;35.19531;102324.5;;;;-76
2022/06/12 10:09:31;;;;;;;;;;;;;;;29.59;35.14648;102325;;;;-79
2022/06/12 10:14:32;;;;;;;;;;;;;;;29.71;34.59277;102319.4;;;;-78
2022/06/12 10:19:32;;;;;;;;;;;;;;;29.78;34.5166;102328;;;;-77
2022/06/12 10:19:53;;;;;;;6.4;1.8;;;;;;;;;;;;;-78
2022/06/12 10:24:28;;;;;;;;;;;;;;;29.84;34.70801;102323;;;;-78
2022/06/12 10:29:29;;;;;;;;;;;;;;;29.94;34.42285;102322;;;;-77
2022/06/12 10:34:29;;;;;;;;;;;;;;;30.07;34.08105;102320;;;;-75
2022/06/12 10:39:29;;;;;;;;;;;;;;;30.28;34.13281;102334.8;;;;-76
2022/06/12 10:44:37;;;;;;;;;;;;;;;30.45;33.65234;102323.4;;;;-77
2022/06/12 10:49:28;;;;;;;;;;;;;;;30.52;33.42188;102318.6;;;;-76
2022/06/12 10:50:04;;;;;;;6.1;1.6;;;;;;;;;;;;;-77
2022/06/12 10:54:31;;;;;;;;;;;;;;;30.65;33.80762;102319.4;;;;-77
2022/06/12 10:59:32;;;;;;;;;;;;;;;30.69;33.3291;102322.6;;;;-76
2022/06/12 11:04:49;;;;;;;;;;;;;;;30.53;33.31738;102312.3;;;;-77
2022/06/12 11:09:35;;;;;;;;;;;;;;;30.48;33.44336;102307.7;;;;-77
2022/06/12 11:14:39;;;;;;;;;;;;;;;30.48;33.43164;102314.8;;;;-77
2022/06/12 11:19:38;;;;;;;;;;;;;;;30.49;33.31445;102312.1;;;;-78
2022/06/12 11:20:05;;;;;;;5.6;1.4;;;;;;;;;;;;;-79
2022/06/12 11:24:32;;;;;;;;;;;;;;;30.41;33.75488;102311.4;;;;-79
2022/06/12 11:29:38;;;;;;;;;;;;;;;30.44;33.6748;102313.8;;;;-78
2022/06/12 11:34:38;;;;;;;;;;;;;;;30.49;33.96094;102309.7;;;;-77
2022/06/12 11:39:35;;;;;;;;;;;;;;;30.5;33.85547;102315;;;;-77
2022/06/12 11:44:38;;;;;;;;;;;;;;;30.46;33.98145;102313.8;;;;-78
2022/06/12 11:49:35;;;;;;;;;;;;;;;30.48;33.72559;102303.8;;;;-79
2022/06/12 11:50:10;;;;;;;6.2;1.6;;;;;;;;;;;;;-78
2022/06/12 11:54:34;;;;;;;;;;;;;;;30.44;34.03906;102307.1;;;;-76
2022/06/12 11:59:34;;;;;;;;;;;;;;;30.48;34.20605;102304.3;;;;-77
2022/06/12 12:04:35;;;;;;;;;;;;;;;30.56;34.27051;102308.3;;;;-77
2022/06/12 12:09:38;;;;;;;;;;;;;;;30.51;34.18457;102304.6;;;;-77
2022/06/12 12:14:31;;;;;;;;;;;;;;;30.4;34.37598;102309;;;;-78
2022/06/12 12:19:31;;;;;;;;;;;;;;;30.38;34.13965;102303.4;;;;-77
2022/06/12 12:20:15;;;;;;;6.4;1.6;;;;;;;;;;;;;-77
2022/06/12 12:24:31;;;;;;;;;;;;;;;30.28;34.14355;102298.9;;;;-77
2022/06/12 12:29:30;;;;;;;;;;;;;;;30.34;34.33594;102301;;;;-76
2022/06/12 12:34:30;;;;;;;;;;;;;;;30.37;34.31445;102309.2;;;;-78
2022/06/12 12:44:40;;;;;;;;;;;;;;;30.43;34.41309;102305.1;;;;-77
2022/06/12 12:49:39;;;;;;;;;;;;;;;30.51;34.27832;102310.5;;;;-78
2022/06/12 12:50:15;;;;;;;5.6;1.9;;;;;;;;;;;;;-80
2022/06/12 12:54:28;;;;;;;;;;;;;;;30.54;34.59766;102311.7;;;;-83
2022/06/12 12:59:37;;;;;;;;;;;;;;;30.67;34.21973;102308.2;;;;-82
2022/06/12 13:04:38;;;;;;;;;;;;;;;30.72;34.01172;102304.7;;;;-81
2022/06/12 13:09:41;;;;;;;;;;;;;;;30.75;34.26074;102305.3;;;;-77
2022/06/12 13:14:34;;;;;;;;;;;;;;;30.71;34.15332;102303;;;;-77
2022/06/12 13:19:37;;;;;;;;;;;;;;;30.63;34.26465;102302.4;;;;-81
2022/06/12 13:20:33;;;;;;;6.2;1.6;;;;;;;;;;;;;-77
2022/06/12 13:24:39;;;;;;;;;;;;;;;30.63;34.18164;102298.5;;;;-80
2022/06/12 13:29:29;;;;;;;;;;;;;;;30.61;34.20313;102305.4;;;;-77
2022/06/12 13:34:30;;;;;;;;;;;;;;;30.65;33.99609;102300.8;;;;-75
2022/06/12 13:39:31;;;;;;;;;;;;;;;30.65;34.14844;102304.4;;;;-79
2022/06/12 13:44:30;;;;;;;;;;;;;;;30.62;34.00488;102300.9;;;;-79
2022/06/12 13:49:32;;;;;;;;;;;;;;;30.55;34.28125;102301.3;;;;-80
2022/06/12 13:50:28;;;;;;;6.1;1.9;;;;;;;;;;;;;-77
2022/06/12 13:54:29;;;;;;;;;;;;;;;30.64;34.27637;102294.3;;;;-80
2022/06/12 13:59:31;;;;;;;;;;;;;;;30.71;34.08301;102285.4;;;;-78
2022/06/12 14:04:29;;;;;;;;;;;;;;;30.77;33.79395;102279.5;;;;-77
2022/06/12 14:09:30;;;;;;;;;;;;;;;30.79;34.07617;102278.5;;;;-78
2022/06/12 14:14:36;;;;;;;;;;;;;;;30.86;34.19922;102280.2;;;;-79
2022/06/12 14:19:33;;;;;;;;;;;;;;;30.91;33.91016;102276.8;;;;-76
2022/06/12 14:20:31;;;;;;;9.5;2.1;;;;;;;;;;;;;-78
2022/06/12 14:24:35;;;;;;;;;;;;;;;30.89;34.10742;102273.5;;;;-79
2022/06/12 14:29:40;;;;;;;;;;;;;;;30.86;34.23438;102268.9;;;;-78
2022/06/12 14:34:31;;;;;;;;;;;;;;;30.91;34.13281;102268.1;;;;-78
2022/06/12 14:39:34;;;;;;;;;;;;;;;30.87;34.21094;102262.2;;;;-76
2022/06/12 14:44:29;;;;;;;;;;;;;;;30.81;34.37207;102255.5;;;;-80
2022/06/12 14:49:28;;;;;;;;;;;;;;;30.78;34.4873;102247.5;;;;-76
2022/06/12 14:50:34;;;;;;;7.7;1.9;;;;;;;;;;;;;-77
2022/06/12 14:54:28;;;;;;;;;;;;;;;29.2;31.54688;102253.5;;;;-76
2022/06/12 14:59:29;;;;;;;;;;;;;;;27.62;33.37305;102249.5;;;;-80
2022/06/12 15:04:31;;;;;;;;;;;;;;;26.95;34.65039;102246.8;;;;-77
2022/06/12 15:09:31;;;;;;;;;;;;;;;26.1;35.4209;102246.6;;;;-78
2022/06/12 15:14:30;;;;;;;;;;;;;;;27.33;35.58789;102241.4;;;;-77
2022/06/12 15:19:29;;;;;;;;;;;;;;;28.32;34.4873;102247.9;;;;-77
2022/06/12 15:20:38;;;;;;;8.6;2.4;;;;;;;;;;;;;-80
2022/06/12 15:24:29;;;;;;;;;;;;;;;28.73;34.05078;102240.6;;;;-78
2022/06/12 15:34:29;;;;;;;;;;;;;;;29.1;33.91504;102229.6;;;;-77
2022/06/12 15:39:29;;;;;;;;;;;;;;;29.11;33.9043;102229.4;;;;-76
2022/06/12 15:44:28;;;;;;;;;;;;;;;29.03;34.03809;102223.5;;;;-77
2022/06/12 15:49:28;;;;;;;;;;;;;;;28.93;34.37012;102214.6;;;;-76
2022/06/12 15:50:43;;;;;;;9;3.4;;;;;;;;;;;;;-76
2022/06/12 15:54:30;;;;;;;;;;;;;;;28.82;34.54883;102214.4;;;;-77
2022/06/12 15:59:29;;;;;;;;;;;;;;;28.69;34.95996;102207.2;;;;-78
2022/06/12 16:04:29;;;;;;;;;;;;;;;28.56;34.77441;102209.8;;;;-77
2022/06/12 16:09:28;;;;;;;;;;;;;;;28.38;35.26172;102210.9;;;;-76
2022/06/12 16:14:28;;;;;;;;;;;;;;;28.2;35.55176;102216.6;;;;-76
2022/06/12 16:19:28;;;;;;;;;;;;;;;28.08;35.70508;102213.5;;;;-78
2022/06/12 16:20:47;;;;;;;8;2.8;;;;;;;;;;;;;-77
2022/06/12 16:24:31;;;;;;;;;;;;;;;27.94;35.8584;102216;;;;-78
2022/06/12 16:29:39;;;;;;;;;;;;;;;;;;;;;
2022/06/12 16:34:28;;;;;;;;;;;;;;;27.74;36.14453;102217.9;;;;-77
2022/06/12 16:39:29;;;;;;;;;;;;;;;27.6;36.40137;102209.9;;;;-78
2022/06/12 16:44:30;;;;;;;;;;;;;;;27.49;36.50977;102214.7;;;;-76
2022/06/12 16:49:32;;;;;;;;;;;;;;;27.36;36.62695;102214.5;;;;-77
2022/06/12 16:50:51;;;;;;;8.1;2.2;;;;;;;;;;;;;-76
2022/06/12 16:54:30;;;;;;;;;;;;;;;26.98;35.46777;102210.1;;;;-77
2022/06/12 16:59:29;;;;;;;;;;;;;;;25.4;37.45313;102203.5;;;;-77
2022/06/12 17:04:29;;;;;;;;;;;;;;;25.84;37.47754;102206.7;;;;-77
2022/06/12 17:09:28;;;;;;;;;;;;;;;26.08;37.17383;102199.7;;;;-76
2022/06/12 17:14:28;;;;;;;;;;;;;;;26.08;37.3125;102200.4;;;;-77
2022/06/12 17:20:55;;;;;;;9.7;2.5;;;;;;;;;;;;;-77
2022/06/12 17:24:28;;;;;;;;;;;;;;;25.83;37.61621;102194.6;;;;-76
2022/06/12 17:29:28;;;;;;;;;;;;;;;25.68;38.0332;102196.4;;;;-78
2022/06/12 17:34:28;;;;;;;;;;;;;;;25.53;38.35645;102195.4;;;;-76
2022/06/12 17:39:28;;;;;;;;;;;;;;;25.37;38.26172;102194.3;;;;-77
2022/06/12 17:44:28;;;;;;;;;;;;;;;25.18;38.53516;102199.9;;;;-77
2022/06/12 17:49:29;;;;;;;;;;;;;;;24.99;38.56543;102193.5;;;;-78
2022/06/12 17:50:59;;;;;;;6.1;2.1;;;;;;;;;;;;;-77
2022/06/12 17:54:29;;;;;;;;;;;;;;;24.81;38.88477;102199.4;;;;-77
2022/06/12 17:59:29;;;;;;;;;;;;;;;24.64;39.14746;102200.6;;;;-79
2022/06/12 18:04:29;;;;;;;;;;;;;;;24.47;39.375;102198.5;;;;-78
2022/06/12 18:09:28;;;;;;;;;;;;;;;24.2;39.56055;102196.4;;;;-75
2022/06/12 18:19:01;;;;;;;;;;;;;;;24.06;39.75586;102202.7;;;;-77
2022/06/12 18:19:29;;;;;;;;;;;;;;;23.9;39.8916;102202.1;;;;-76
2022/06/12 18:21:03;;;;;;;8.5;2.5;;;;;;;;;;;;;-78
2022/06/12 18:24:30;;;;;;;;;;;;;;;23.73;39.98047;102202.7;;;;-75
2022/06/12 18:29:28;;;;;;;;;;;;;;;23.53;39.89355;102203.8;;;;-77
2022/06/12 18:34:28;;;;;;;;;;;;;;;23.28;40.13574;102208.1;;;;-76
2022/06/12 18:39:28;;;;;;;;;;;;;;;22.99;40.22559;102204.8;;;;-76
2022/06/12 18:44:28;;;;;;;;;;;;;;;22.72;40.37305;102203.9;;;;-77
2022/06/12 18:49:33;;;;;;;;;;;;;;;22.45;40.49902;102209.9;;;;-77
2022/06/12 18:51:06;;;;;;;5.6;2.3;;;;;;;;;;;;;-75
2022/06/12 18:54:28;;;;;;;;;;;;;;;22.14;40.58594;102204.3;;;;-77
2022/06/12 18:59:29;;;;;;;;;;;;;;;21.84;40.78809;102202.6;;;;-76
2022/06/12 19:04:31;;;;;;;;;;;;;;;21.57;41.14258;102206.7;;;;-78
2022/06/12 19:09:30;;;;;;;;;;;;;;;21.3;41.61035;102201.7;;;;-78
2022/06/12 19:14:29;;;;;;;;;;;;;;;21.03;42.0791;102193.6;;;;-77
2022/06/12 19:19:28;;;;;;;;;;;;;;;20.79;42.41113;102188.9;;;;-76
2022/06/12 19:21:10;;;;;;;7;2.2;;;;;;;;;;;;;-76
2022/06/12 19:24:29;;;;;;;;;;;;;;;20.57;42.75684;102183.1;;;;-78
2022/06/12 19:29:29;;;;;;;;;;;;;;;20.36;43.20605;102179.8;;;;-77
2022/06/12 19:34:28;;;;;;;;;;;;;;;20.18;43.58789;102183;;;;-78
2022/06/12 19:39:29;;;;;;;;;;;;;;;20;44.03906;102180;;;;-77
2022/06/12 19:44:29;;;;;;;;;;;;;;;19.82;44.44336;102183.7;;;;-76
2022/06/12 19:49:28;;;;;;;;;;;;;;;19.63;44.74512;102188.5;;;;-74
2022/06/12 19:51:12;;;;;;;8.6;2.3;;;;;;;;;;;;;-77
2022/06/12 19:54:29;;;;;;;;;;;;;;;19.45;45.24023;102193.5;;;;-77
2022/06/12 19:59:28;;;;;;;;;;;;;;;19.26;45.67676;102196.8;;;;-76
2022/06/12 20:09:29;;;;;;;;;;;;;;;18.86;46.49023;102205;;;;-76
2022/06/12 20:14:30;;;;;;;;;;;;;;;18.67;46.77637;102192.2;;;;-75
2022/06/12 20:19:33;;;;;;;;;;;;;;;18.5;47.01074;102196.1;;;;-75
2022/06/12 20:21:15;;;;;;;10.3;2.4;;;;;;;;;;;;;-75
2022/06/12 20:24:29;;;;;;;;;;;;;;;18.33;47.46973;102202.3;;;;-77
2022/06/12 20:29:28;;;;;;;;;;;;;;;18.17;47.62305;102200.1;;;;-76
2022/06/12 20:34:29;;;;;;;;;;;;;;;18.01;47.85547;102197.1;;;;-76
2022/06/12 20:39:29;;;;;;;;;;;;;;;17.86;48.20215;102193.3;;;;-76
2022/06/12 20:44:28;;;;;;;;;;;;;;;17.71;48.14063;102190.8;;;;-76
2022/06/12 20:49:29;;;;;;;;;;;;;;;17.57;48.5;102183.3;;;;-76
2022/06/12 20:51:17;;;;;;;9.1;2.8;;;;;;;;;;;;;-78
2022/06/12 20:54:28;;;;;;;;;;;;;;;17.41;48.92578;102179.4;;;;-76
2022/06/12 20:59:28;;;;;;;;;;;;;;;17.28;49.02441;102181.3;;;;-75
2022/06/12 21:04:28;;;;;;;;;;;;;;;17.19;49.41113;102183.4;;;;-78
2022/06/12 21:09:29;;;;;;;;;;;;;;;17.05;49.49902;102178.2;;;;-81
2022/06/12 21:14:29;;;;;;;;;;;;;;;16.96;49.70313;102174.4;;;;-81
2022/06/12 21:19:28;;;;;;;;;;;;;;;16.87;50.04395;102181.7;;;;-82
2022/06/12 21:21:19;;;;;;;8.4;2.7;;;;;;;;;;;;;-81
2022/06/12 21:24:30;;;;;;;;;;;;;;;16.79;50.45508;102181.1;;;;-84
2022/06/12 21:29:29;;;;;;;;;;;;;;;16.73;50.51465;102171.1;;;;-81
2022/06/12 21:34:29;;;;;;;;;;;;;;;16.67;50.74512;102170.3;;;;-84
2022/06/12 21:39:28;;;;;;;;;;;;;;;16.65;51.07227;102167;;;;-80
2022/06/12 21:44:29;;;;;;;;;;;;;;;16.63;51.03613;102160.2;;;;-82
2022/06/12 21:49:29;;;;;;;;;;;;;;;16.58;51.12109;102145.7;;;;-83
2022/06/12 21:54:38;;;;;;;;;;;;;;;16.53;51.27344;102146.5;;;;-82
2022/06/12 21:59:29;;;;;;;;;;;;;;;16.47;51.58203;102150.6;;;;-81
2022/06/12 22:04:33;;;;;;;;;;;;;;;16.37;51.62793;102147.9;;;;-83
2022/06/12 22:09:29;;;;;;;;;;;;;;;16.33;51.82617;102147.1;;;;-82
2022/06/12 22:14:30;;;;;;;;;;;;;;;16.26;52.12402;102147.3;;;;-81
2022/06/12 22:19:29;;;;;;;;;;;;;;;16.18;52.33008;102153.9;;;;-84
2022/06/12 22:21:24;;;;;;;7;2.6;;;;;;;;;;;;;-84
2022/06/12 22:24:29;;;;;;;;;;;;;;;16.15;52.3252;102147;;;;-82
2022/06/12 22:29:29;;;;;;;;;;;;;;;16.13;52.35742;102141.2;;;;-82
2022/06/12 22:34:32;;;;;;;;;;;;;;;16.09;52.1709;102143.4;;;;-83
2022/06/12 22:39:29;;;;;;;;;;;;;;;16.1;52.28613;102158.5;;;;-82
2022/06/12 22:44:29;;;;;;;;;;;;;;;16.11;52.26367;102142.9;;;;-83
2022/06/12 22:49:29;;;;;;;;;;;;;;;16.13;52.25488;102152.4;;;;-83
2022/06/12 22:51:26;;;;;;;6.4;2.5;;;;;;;;;;;;;-81
2022/06/12 22:54:29;;;;;;;;;;;;;;;16.13;52.16602;102139.3;;;;-83
2022/06/12 22:59:30;;;;;;;;;;;;;;;16.15;52.25781;102121.5;;;;-83
2022/06/12 23:04:29;;;;;;;;;;;;;;;16.15;52.16699;102121;;;;-82
2022/06/12 23:09:29;;;;;;;;;;;;;;;16.16;52.28125;102120.9;;;;-81
2022/06/12 23:14:31;;;;;;;;;;;;;;;16.16;52.5752;102120.5;;;;-83
2022/06/12 23:19:35;;;;;;;;;;;;;;;16.14;52.87793;102118.4;;;;-83
2022/06/12 23:21:27;;;;;;;6.4;2.8;;;;;;;;;;;;;-82
2022/06/12 23:24:30;;;;;;;;;;;;;;;16.14;52.93457;102108.1;;;;-81
2022/06/12 23:29:29;;;;;;;;;;;;;;;16.13;53.23926;102106.1;;;;-82
2022/06/12 23:34:29;;;;;;;;;;;;;;;16.14;53.3418;102110.7;;;;-82
2022/06/12 23:39:29;;;;;;;;;;;;;;;16.12;53.06738;102112.5;;;;-82
2022/06/12 23:44:28;;;;;;;;;;;;;;;16.1;53.14453;102110.7;;;;-83
2022/06/12 23:49:32;;;;;;;;;;;;;;;16.07;53.58203;102105;;;;-83
2022/06/12 23:51:33;;;;;;;10.4;2.8;;;;;;;;;;;;;-82
2022/06/12 23:54:29;;;;;;;;;;;;;;;16.05;53.5459;102112.2;;;;-83
2022/06/12 23:59:28;;;;;;;;;;;;;;;16.04;53.43066;102100.8;;;;-84
